Time;durP1;ratioP1;P1;durP2;ratioP2;P2;SDS_P1;SDS_P2;PMS_P1;PMS_P2;Temp;Humidity;BMP_temperature;BMP_pressure;BME280_temperature;BME280_humidity;BME280_pressure;Samples;Min_cycle;Max_cycle;Signal;HPM_P1;HPM_P2
2021/08/25 00:01:14;;;;;;;11.80;10.37;;;13.50;99.90;;;;;;5089998;28;20294;-67
2021/08/25 00:03:44;;;;;;;13.23;10.50;;;13.50;99.90;;;;;;5089209;28;20191;-67
2021/08/25 00:06:12;;;;;;;11.00;9.90;;;13.50;99.90;;;;;;5087992;28;20272;-67
2021/08/25 00:08:40;;;;;;;13.00;10.50;;;13.50;99.90;;;;;;5087599;28;20256;-67
2021/08/25 00:11:09;;;;;;;13.33;9.87;;;13.40;99.90;;;;;;5087128;28;20719;-67
2021/08/25 00:13:37;;;;;;;13.70;10.80;;;13.40;99.90;;;;;;5088235;28;20230;-67
2021/08/25 00:16:07;;;;;;;11.60;10.40;;;13.40;99.90;;;;;;5084692;28;20222;-67
2021/08/25 00:18:35;;;;;;;11.47;10.27;;;13.40;99.90;;;;;;5088750;28;20191;-67
2021/08/25 00:21:04;;;;;;;12.30;11.00;;;13.40;99.90;;;;;;5089099;28;20242;-67
2021/08/25 00:23:32;;;;;;;12.43;10.83;;;13.40;99.90;;;;;;5071764;28;20211;-67
2021/08/25 00:26:00;;;;;;;13.37;10.97;;;13.30;99.90;;;;;;5090731;28;20214;-67
2021/08/25 00:28:28;;;;;;;13.50;11.37;;;13.30;99.90;;;;;;5088966;28;20244;-67
2021/08/25 00:30:57;;;;;;;13.77;11.93;;;13.30;99.90;;;;;;5088415;28;20599;-68
2021/08/25 00:33:26;;;;;;;14.70;11.77;;;13.30;99.90;;;;;;5088270;28;20202;-67
2021/08/25 00:35:55;;;;;;;14.70;12.40;;;13.20;99.90;;;;;;5090293;28;20221;-67
2021/08/25 00:38:23;;;;;;;15.07;12.23;;;13.20;99.90;;;;;;5088358;28;20195;-67
2021/08/25 00:40:51;;;;;;;16.80;13.37;;;13.20;99.90;;;;;;5085019;28;20465;-66
2021/08/25 00:43:20;;;;;;;15.20;13.47;;;13.20;99.90;;;;;;5088242;28;20191;-67
2021/08/25 00:45:48;;;;;;;14.13;12.63;;;13.20;99.90;;;;;;5090486;28;20192;-67
2021/08/25 00:48:18;;;;;;;15.60;12.60;;;13.10;99.90;;;;;;5088072;28;20206;-67
2021/08/25 00:50:49;;;;;;;15.80;13.43;;;13.10;99.90;;;;;;5087658;28;20684;-67
2021/08/25 00:53:18;;;;;;;14.10;12.70;;;13.10;99.90;;;;;;5085267;28;20190;-67
2021/08/25 00:55:47;;;;;;;15.73;13.03;;;13.10;99.90;;;;;;5087780;28;20245;-67
2021/08/25 00:58:15;;;;;;;16.10;14.20;;;13.00;99.90;;;;;;5085731;28;20198;-67
2021/08/25 01:00:56;;;;;;;16.53;14.03;;;13.00;99.90;;;;;;5067131;28;20224;-67
2021/08/25 01:03:29;;;;;;;19.63;14.53;;;13.00;99.90;;;;;;5092168;28;20763;-67
2021/08/25 01:05:59;;;;;;;17.30;14.50;;;12.90;99.90;;;;;;5086953;28;20231;-67
2021/08/25 01:08:28;;;;;;;22.43;15.20;;;12.90;99.90;;;;;;5091189;28;20630;-67
2021/08/25 01:11:06;;;;;;;16.30;14.30;;;12.90;99.90;;;;;;5064145;28;20188;-67
2021/08/25 01:13:35;;;;;;;15.77;13.83;;;12.90;99.90;;;;;;5086672;28;20661;-67
2021/08/25 01:16:03;;;;;;;16.53;14.80;;;12.80;99.90;;;;;;5086329;28;20195;-67
2021/08/25 01:18:32;;;;;;;18.57;15.27;;;12.80;99.90;;;;;;5088881;28;20557;-67
2021/08/25 01:21:03;;;;;;;17.83;15.00;;;12.80;99.90;;;;;;5085013;28;20195;-67
2021/08/25 01:23:33;;;;;;;19.33;15.47;;;12.80;99.90;;;;;;5089813;28;20211;-67
2021/08/25 01:26:02;;;;;;;19.50;15.97;;;12.80;99.90;;;;;;5088746;28;20677;-67
2021/08/25 01:28:36;;;;;;;22.07;16.40;;;12.80;99.90;;;;;;5069137;28;20279;-67
2021/08/25 01:31:06;;;;;;;20.00;16.97;;;12.70;99.90;;;;;;5066205;28;20216;-67
2021/08/25 01:33:35;;;;;;;21.50;16.60;;;12.70;99.90;;;;;;5086714;28;20287;-67
2021/08/25 01:36:03;;;;;;;17.70;15.60;;;12.70;99.90;;;;;;5084596;28;20234;-67
2021/08/25 01:38:41;;;;;;;18.87;16.33;;;12.70;99.90;;;;;;5087921;28;20596;-67
2021/08/25 01:41:09;;;;;;;20.67;16.10;;;12.70;99.90;;;;;;5085959;28;20669;-67
2021/08/25 01:43:38;;;;;;;23.60;16.53;;;12.70;99.90;;;;;;5083797;28;20222;-67
2021/08/25 01:46:08;;;;;;;19.00;16.30;;;12.60;99.90;;;;;;5085191;28;20964;-67
2021/08/25 01:48:36;;;;;;;18.20;16.23;;;12.60;99.90;;;;;;5088453;28;20233;-67
2021/08/25 01:51:04;;;;;;;19.43;15.73;;;12.60;99.90;;;;;;5083999;28;20622;-67
2021/08/25 01:53:33;;;;;;;23.87;16.73;;;12.50;99.90;;;;;;5071021;28;20222;-67
2021/08/25 01:56:01;;;;;;;17.17;15.30;;;12.50;99.90;;;;;;5054700;28;20646;-67
2021/08/25 01:58:29;;;;;;;19.17;15.37;;;12.50;99.90;;;;;;5087011;28;20200;-67
2021/08/25 02:00:58;;;;;;;22.17;16.13;;;12.40;99.90;;;;;;5084133;28;20234;-67
2021/08/25 02:03:28;;;;;;;18.97;15.77;;;12.40;99.90;;;;;;5076003;28;20212;-67
2021/08/25 02:05:56;;;;;;;19.40;15.60;;;12.40;99.90;;;;;;5083996;28;20688;-67
2021/08/25 02:08:24;;;;;;;19.70;15.37;;;12.40;99.90;;;;;;5086909;28;20286;-67
2021/08/25 02:10:53;;;;;;;22.63;16.87;;;12.40;99.90;;;;;;5083560;28;20245;-66
2021/08/25 02:13:21;;;;;;;19.73;16.13;;;12.40;99.90;;;;;;5068987;28;20328;-67
2021/08/25 02:15:55;;;;;;;20.57;17.03;;;12.40;99.90;;;;;;5085513;28;20211;-67
2021/08/25 02:18:23;;;;;;;16.97;14.33;;;12.30;99.90;;;;;;5089924;28;20191;-68
2021/08/25 02:20:53;;;;;;;18.17;15.37;;;12.20;99.90;;;;;;5086581;28;20225;-67
2021/08/25 02:23:21;;;;;;;17.10;14.67;;;12.20;99.90;;;;;;5086393;28;20276;-67
2021/08/25 02:25:50;;;;;;;18.90;15.63;;;12.10;99.90;;;;;;5086833;28;20717;-67
2021/08/25 02:28:18;;;;;;;21.90;16.23;;;12.20;99.90;;;;;;5087802;28;20261;-67
2021/08/25 02:30:46;;;;;;;20.13;15.80;;;12.10;99.90;;;;;;5067612;28;20246;-67
2021/08/25 02:33:15;;;;;;;18.90;15.20;;;12.10;99.90;;;;;;5068930;28;20179;-67
2021/08/25 02:35:43;;;;;;;20.23;15.63;;;12.10;99.90;;;;;;5087812;28;20192;-67
2021/08/25 02:38:13;;;;;;;18.20;15.43;;;12.10;99.90;;;;;;5068773;28;20221;-67
2021/08/25 02:40:43;;;;;;;20.20;16.30;;;12.10;99.90;;;;;;5067049;28;20624;-67
2021/08/25 02:43:12;;;;;;;22.07;16.70;;;12.10;99.90;;;;;;5088077;28;20218;-67
2021/08/25 02:45:40;;;;;;;22.33;16.20;;;12.10;99.90;;;;;;5086905;28;20286;-67
2021/08/25 02:48:08;;;;;;;18.67;15.63;;;12.10;99.90;;;;;;5087890;28;20222;-67
2021/08/25 02:50:37;;;;;;;19.40;15.53;;;12.00;99.90;;;;;;5083213;28;20192;-66
2021/08/25 02:53:05;;;;;;;19.30;16.67;;;12.00;99.90;;;;;;5068954;28;20196;-67
2021/08/25 02:55:35;;;;;;;22.13;16.67;;;12.00;99.90;;;;;;5085135;28;20199;-67
2021/08/25 02:58:04;;;;;;;24.50;18.40;;;12.00;99.90;;;;;;5084582;28;20222;-67
2021/08/25 03:00:32;;;;;;;20.03;16.53;;;11.90;99.90;;;;;;5068908;28;20296;-67
2021/08/25 03:03:01;;;;;;;22.87;17.43;;;11.90;99.90;;;;;;5085469;28;20424;-67
2021/08/25 03:05:29;;;;;;;23.07;16.77;;;11.90;99.90;;;;;;5088164;28;20223;-68
2021/08/25 03:07:57;;;;;;;20.93;16.50;;;11.90;99.90;;;;;;5085412;28;20203;-67
2021/08/25 03:10:26;;;;;;;17.87;15.43;;;11.90;99.90;;;;;;5094346;28;20219;-68
2021/08/25 03:12:55;;;;;;;22.40;16.33;;;11.80;99.90;;;;;;5085303;28;20547;-67
2021/08/25 03:15:24;;;;;;;22.87;16.63;;;11.80;99.90;;;;;;5088402;28;20270;-67
2021/08/25 03:17:52;;;;;;;18.00;16.10;;;11.80;99.90;;;;;;5087475;28;20287;-67
2021/08/25 03:20:21;;;;;;;23.37;17.37;;;11.80;99.90;;;;;;5072279;28;20191;-67
2021/08/25 03:23:14;;;;;;;20.43;16.90;;;11.80;99.90;;;;;;5089862;28;20308;-67
2021/08/25 03:25:42;;;;;;;25.20;18.53;;;11.70;99.90;;;;;;5073882;28;20662;-67
2021/08/25 03:28:12;;;;;;;22.93;17.07;;;11.80;99.90;;;;;;5089803;28;20192;-67
2021/08/25 03:30:40;;;;;;;21.17;16.70;;;11.80;99.90;;;;;;5089075;28;20219;-67
2021/08/25 03:33:09;;;;;;;22.33;17.13;;;11.70;99.90;;;;;;5090342;28;20186;-67
2021/08/25 03:35:38;;;;;;;22.27;17.77;;;11.70;99.90;;;;;;5089155;28;20200;-66
2021/08/25 03:38:06;;;;;;;21.03;16.67;;;11.70;99.90;;;;;;5091952;28;20294;-67
2021/08/25 03:40:34;;;;;;;20.03;15.87;;;11.70;99.90;;;;;;5090536;28;22038;-67
2021/08/25 03:43:03;;;;;;;23.43;17.40;;;11.60;99.90;;;;;;5090199;28;20730;-67
2021/08/25 03:45:32;;;;;;;20.20;16.83;;;11.60;99.90;;;;;;5070487;28;20238;-68
2021/08/25 03:48:00;;;;;;;22.70;17.40;;;11.60;99.90;;;;;;5091154;28;20195;-67
2021/08/25 03:50:29;;;;;;;21.93;16.40;;;11.60;99.90;;;;;;5068208;28;20664;-67
2021/08/25 03:52:57;;;;;;;20.20;15.53;;;11.60;99.90;;;;;;5089733;28;20596;-67
2021/08/25 03:55:25;;;;;;;16.10;13.23;;;11.50;99.90;;;;;;5092092;28;20226;-68
2021/08/25 03:57:54;;;;;;;18.60;14.87;;;11.50;99.90;;;;;;5087822;28;20187;-67
2021/08/25 04:00:25;;;;;;;17.90;14.27;;;11.40;99.90;;;;;;5088875;28;20195;-67
2021/08/25 04:02:54;;;;;;;16.67;14.60;;;11.40;99.90;;;;;;5089787;28;20707;-67
2021/08/25 04:05:23;;;;;;;22.30;16.67;;;11.30;99.90;;;;;;5087554;28;20294;-67
2021/08/25 04:07:51;;;;;;;20.97;17.03;;;11.30;99.90;;;;;;5077753;28;20676;-67
2021/08/25 04:10:20;;;;;;;23.30;17.47;;;11.30;99.90;;;;;;5087647;28;20817;-67
2021/08/25 04:13:29;;;;;;;22.07;16.50;;;11.30;99.90;;;;;;5085207;28;20203;-67
2021/08/25 04:15:58;;;;;;;21.50;17.23;;;11.30;99.90;;;;;;5065632;28;20278;-66
2021/08/25 04:18:30;;;;;;;21.97;17.40;;;11.20;99.90;;;;;;5086197;28;20225;-67
2021/08/25 04:20:58;;;;;;;21.77;16.83;;;11.20;99.90;;;;;;5086345;28;20657;-66
2021/08/25 04:23:28;;;;;;;23.73;17.47;;;11.20;99.90;;;;;;5086178;28;20277;-68
2021/08/25 04:25:57;;;;;;;21.10;16.83;;;11.20;99.90;;;;;;5090071;28;20203;-67
2021/08/25 04:28:28;;;;;;;22.17;16.93;;;11.20;99.90;;;;;;5086249;28;20203;-67
2021/08/25 04:31:08;;;;;;;20.43;16.50;;;11.20;99.90;;;;;;5080100;28;20189;-67
2021/08/25 04:33:38;;;;;;;23.53;17.80;;;11.20;99.90;;;;;;5068973;28;20867;-67
2021/08/25 04:36:47;;;;;;;23.13;16.97;;;11.20;99.90;;;;;;5085268;28;20578;-67
2021/08/25 04:39:15;;;;;;;23.43;17.60;;;11.10;99.90;;;;;;5073345;28;20199;-68
2021/08/25 04:41:46;;;;;;;22.03;17.20;;;11.10;99.90;;;;;;5088661;28;20248;-68
2021/08/25 04:44:14;;;;;;;24.37;17.57;;;11.10;99.90;;;;;;5089282;28;20218;-68
2021/08/25 04:46:43;;;;;;;27.67;17.17;;;11.10;99.90;;;;;;5088707;28;20191;-68
2021/08/25 04:49:13;;;;;;;25.43;18.20;;;11.10;99.90;;;;;;5091220;28;20200;-67
2021/08/25 04:51:41;;;;;;;24.10;17.77;;;11.10;99.90;;;;;;5087591;28;20709;-67
2021/08/25 04:54:09;;;;;;;20.00;16.43;;;11.10;99.90;;;;;;5067600;28;20191;-67
2021/08/25 04:56:38;;;;;;;27.70;16.13;;;11.10;99.90;;;;;;5088208;28;20975;-67
2021/08/25 04:59:06;;;;;;;23.80;15.47;;;11.00;99.90;;;;;;5087913;28;20290;-67
2021/08/25 05:01:35;;;;;;;25.27;16.47;;;11.00;99.90;;;;;;5091562;28;20219;-67
2021/08/25 05:04:03;;;;;;;25.17;16.60;;;11.00;99.90;;;;;;5083232;28;20246;-68
2021/08/25 05:06:33;;;;;;;23.20;17.07;;;11.00;99.90;;;;;;5095243;28;20250;-67
2021/08/25 05:09:01;;;;;;;21.93;15.47;;;11.00;99.90;;;;;;5085247;28;20219;-66
2021/08/25 05:11:29;;;;;;;21.50;16.20;;;10.90;99.90;;;;;;5065006;28;20199;-66
2021/08/25 05:13:58;;;;;;;17.73;15.20;;;10.90;99.90;;;;;;5072446;28;20265;-67
2021/08/25 05:16:26;;;;;;;20.90;15.93;;;11.00;99.90;;;;;;5086924;28;20199;-66
2021/08/25 05:18:55;;;;;;;20.13;16.00;;;11.00;99.90;;;;;;5086186;28;20258;-67
2021/08/25 05:21:24;;;;;;;25.17;17.10;;;10.90;99.90;;;;;;5093471;28;20286;-68
2021/08/25 05:23:53;;;;;;;26.60;18.03;;;11.00;99.90;;;;;;5087921;28;20274;-67
2021/08/25 05:26:22;;;;;;;24.93;18.30;;;11.00;99.90;;;;;;5088796;28;20206;-67
2021/08/25 05:28:50;;;;;;;27.10;18.13;;;11.00;99.90;;;;;;5069196;28;20302;-67
2021/08/25 05:31:18;;;;;;;24.00;19.30;;;11.10;99.90;;;;;;5052721;28;20282;-67
2021/08/25 05:33:47;;;;;;;25.97;19.77;;;11.10;99.90;;;;;;5087917;28;20279;-67
2021/08/25 05:36:15;;;;;;;26.93;19.93;;;11.10;99.90;;;;;;5087606;28;20680;-68
2021/08/25 05:38:43;;;;;;;27.53;19.90;;;11.20;99.90;;;;;;5088388;28;20259;-67
2021/08/25 05:41:13;;;;;;;26.57;18.90;;;11.30;99.90;;;;;;5086660;28;20223;-67
2021/08/25 05:43:43;;;;;;;26.40;19.20;;;11.40;99.90;;;;;;5085783;28;20195;-67
2021/08/25 05:46:12;;;;;;;24.57;18.67;;;11.50;99.90;;;;;;5084187;28;20198;-67
2021/08/25 05:48:41;;;;;;;23.97;19.00;;;11.60;99.90;;;;;;5087080;28;20252;-67
2021/08/25 05:51:10;;;;;;;25.87;17.30;;;11.70;99.90;;;;;;5085390;28;20183;-67
2021/08/25 05:53:38;;;;;;;21.03;16.90;;;11.80;99.90;;;;;;5093143;28;20611;-67
2021/08/25 05:56:10;;;;;;;21.03;15.73;;;11.90;99.90;;;;;;5083766;28;20187;-67
2021/08/25 05:58:42;;;;;;;25.67;17.70;;;12.10;99.90;;;;;;5086144;28;20219;-67
2021/08/25 06:01:13;;;;;;;24.90;17.57;;;12.20;99.90;;;;;;5089644;28;20223;-66
2021/08/25 06:03:42;;;;;;;27.60;18.93;;;12.30;99.90;;;;;;5093680;28;20194;-68
2021/08/25 06:06:12;;;;;;;25.93;19.20;;;12.40;99.90;;;;;;5090352;28;20230;-67
2021/08/25 06:08:40;;;;;;;27.73;20.93;;;12.50;99.90;;;;;;5078696;28;20661;-67
2021/08/25 06:11:09;;;;;;;26.60;20.87;;;12.70;99.90;;;;;;5065394;28;20241;-68
2021/08/25 06:13:41;;;;;;;30.13;20.37;;;12.80;99.90;;;;;;5083866;28;20267;-67
2021/08/25 06:16:09;;;;;;;30.00;20.73;;;12.90;99.90;;;;;;5086964;28;20223;-67
2021/08/25 06:18:37;;;;;;;27.87;19.33;;;13.10;99.90;;;;;;5084477;28;20207;-68
2021/08/25 06:21:05;;;;;;;25.30;17.83;;;13.30;99.90;;;;;;5086001;28;20662;-67
2021/08/25 06:23:34;;;;;;;26.67;18.17;;;13.30;99.90;;;;;;5081665;28;20553;-67
2021/08/25 06:26:02;;;;;;;23.17;17.10;;;13.50;99.90;;;;;;5070135;28;20306;-68
2021/08/25 06:28:31;;;;;;;21.83;17.17;;;13.50;99.90;;;;;;5087118;28;20260;-67
2021/08/25 06:31:01;;;;;;;21.13;16.53;;;13.60;99.90;;;;;;5087918;28;20715;-68
2021/08/25 06:33:31;;;;;;;21.97;14.77;;;13.70;99.90;;;;;;5085485;28;20215;-67
2021/08/25 06:36:00;;;;;;;22.03;15.37;;;13.80;99.90;;;;;;5082284;28;20188;-68
2021/08/25 06:38:30;;;;;;;22.20;16.03;;;13.90;99.90;;;;;;5088819;28;20187;-67
2021/08/25 06:40:59;;;;;;;21.00;15.03;;;14.00;99.90;;;;;;5086441;28;20282;-67
2021/08/25 06:43:27;;;;;;;17.93;13.93;;;14.30;99.90;;;;;;5085148;28;20195;-67
2021/08/25 06:45:55;;;;;;;17.87;13.77;;;14.40;99.90;;;;;;5065346;28;20589;-67
2021/08/25 06:48:25;;;;;;;16.83;13.87;;;14.60;99.90;;;;;;5088440;28;20670;-68
2021/08/25 06:50:53;;;;;;;13.13;11.73;;;14.70;99.90;;;;;;5086746;28;20206;-67
2021/08/25 06:53:22;;;;;;;16.57;12.57;;;14.90;99.90;;;;;;5090787;28;20827;-68
2021/08/25 06:55:50;;;;;;;19.87;13.03;;;14.90;99.90;;;;;;5074091;28;20193;-68
2021/08/25 06:58:19;;;;;;;21.57;13.20;;;15.00;99.90;;;;;;5090468;28;20578;-67
2021/08/25 07:00:47;;;;;;;15.83;13.07;;;15.10;99.90;;;;;;5092653;28;20231;-68
2021/08/25 07:03:15;;;;;;;17.27;12.33;;;15.20;99.90;;;;;;5080298;28;20282;-67
2021/08/25 07:05:45;;;;;;;16.10;12.70;;;15.30;99.90;;;;;;5098967;28;20223;-67
2021/08/25 07:08:13;;;;;;;15.20;11.40;;;15.40;99.90;;;;;;5097070;28;20282;-68
2021/08/25 07:10:42;;;;;;;18.13;11.80;;;15.40;99.90;;;;;;5089016;28;20270;-67
2021/08/25 07:13:10;;;;;;;16.77;11.80;;;15.40;99.90;;;;;;5093461;28;20649;-67
2021/08/25 07:15:38;;;;;;;15.07;10.87;;;15.50;99.90;;;;;;5086596;28;20195;-67
2021/08/25 07:18:06;;;;;;;18.07;11.30;;;15.60;99.90;;;;;;5101093;28;20183;-66
2021/08/25 07:20:46;;;;;;;13.20;10.43;;;15.70;99.90;;;;;;5082494;28;20222;-67
2021/08/25 07:23:15;;;;;;;16.33;11.00;;;15.80;99.90;;;;;;5073063;28;20197;-67
2021/08/25 07:25:43;;;;;;;16.90;11.00;;;15.90;99.90;;;;;;5101362;28;20211;-67
2021/08/25 07:28:12;;;;;;;13.13;10.20;;;16.00;99.90;;;;;;5089376;28;20218;-67
2021/08/25 07:30:40;;;;;;;16.03;10.33;;;16.30;99.90;;;;;;5091917;28;20260;-67
2021/08/25 07:33:12;;;;;;;14.67;10.03;;;16.50;99.90;;;;;;5075179;28;20199;-67
2021/08/25 07:35:41;;;;;;;13.30;8.93;;;16.60;99.90;;;;;;5091054;28;20187;-67
2021/08/25 07:38:11;;;;;;;11.57;9.30;;;16.50;99.90;;;;;;5092107;28;20547;-67
2021/08/25 07:40:39;;;;;;;13.03;9.37;;;16.50;99.90;;;;;;5092591;28;20191;-67
2021/08/25 07:43:08;;;;;;;13.93;9.77;;;16.60;99.90;;;;;;5091980;28;20200;-67
2021/08/25 07:45:37;;;;;;;13.73;8.97;;;16.70;99.90;;;;;;5086864;28;20207;-67
2021/08/25 07:48:06;;;;;;;11.63;9.27;;;16.70;99.90;;;;;;5089712;28;20197;-67
2021/08/25 07:50:34;;;;;;;14.97;9.30;;;16.80;99.90;;;;;;5090073;28;20246;-67
2021/08/25 07:53:03;;;;;;;11.50;8.80;;;16.90;99.90;;;;;;5090507;28;20188;-67
2021/08/25 07:55:32;;;;;;;12.30;9.13;;;17.00;99.90;;;;;;5088663;28;20192;-68
2021/08/25 07:58:01;;;;;;;12.37;8.37;;;17.30;99.90;;;;;;5082516;28;20288;-68
2021/08/25 08:00:29;;;;;;;13.47;8.67;;;17.40;99.90;;;;;;5085299;28;20198;-68
2021/08/25 08:02:57;;;;;;;12.23;8.20;;;17.50;99.90;;;;;;5083667;28;20686;-68
2021/08/25 08:05:26;;;;;;;13.10;8.43;;;17.70;99.90;;;;;;5094741;28;20245;-67
2021/08/25 08:07:56;;;;;;;14.57;8.80;;;17.80;99.90;;;;;;5075395;28;20216;-67
2021/08/25 08:10:24;;;;;;;12.07;8.17;;;18.00;99.90;;;;;;5090162;28;20200;-67
2021/08/25 08:12:54;;;;;;;11.53;8.07;;;18.10;99.90;;;;;;5065894;28;20600;-67
2021/08/25 08:15:22;;;;;;;13.40;7.33;;;18.10;99.90;;;;;;5088893;28;20273;-67
2021/08/25 08:17:50;;;;;;;10.67;7.53;;;18.20;99.90;;;;;;5088855;28;20191;-67
2021/08/25 08:20:18;;;;;;;10.57;7.40;;;18.40;99.90;;;;;;5094484;28;20233;-67
2021/08/25 08:22:47;;;;;;;11.17;7.70;;;18.50;99.90;;;;;;5089592;28;20560;-67
2021/08/25 08:25:16;;;;;;;12.30;7.60;;;18.50;99.90;;;;;;5084374;28;20546;-67
2021/08/25 08:27:44;;;;;;;11.77;7.20;;;18.60;99.90;;;;;;5084536;28;20643;-67
2021/08/25 08:30:14;;;;;;;12.37;7.40;;;18.80;99.90;;;;;;5073495;28;20223;-68
2021/08/25 08:32:42;;;;;;;10.57;7.07;;;18.90;99.90;;;;;;5093098;28;20199;-67
2021/08/25 08:35:11;;;;;;;10.90;7.20;;;19.00;99.90;;;;;;5083656;28;20198;-66
2021/08/25 08:37:40;;;;;;;13.43;7.23;;;19.20;99.90;;;;;;5091580;28;20282;-67
2021/08/25 08:40:10;;;;;;;10.60;6.83;;;19.30;99.90;;;;;;5092926;28;20629;-67
2021/08/25 08:42:38;;;;;;;8.83;6.70;;;19.40;99.90;;;;;;5085967;28;20658;-67
2021/08/25 08:45:10;;;;;;;10.10;6.97;;;19.60;99.90;;;;;;5091991;28;20222;-67
2021/08/25 08:47:41;;;;;;;8.13;5.90;;;19.70;99.90;;;;;;5101190;28;20526;-67
2021/08/25 08:50:10;;;;;;;8.07;6.07;;;19.70;99.90;;;;;;5091494;28;20195;-67
2021/08/25 08:52:39;;;;;;;8.87;6.30;;;19.70;99.90;;;;;;5090887;28;20217;-67
2021/08/25 08:55:08;;;;;;;7.47;5.83;;;19.80;99.90;;;;;;5088761;28;20214;-67
2021/08/25 08:57:36;;;;;;;9.43;6.00;;;19.90;99.90;;;;;;5087914;28;20596;-67
2021/08/25 09:00:06;;;;;;;10.77;6.53;;;20.00;99.90;;;;;;5086407;28;20219;-67
2021/08/25 09:02:39;;;;;;;11.63;5.67;;;20.10;99.90;;;;;;5085930;28;20194;-67
2021/08/25 09:05:28;;;;;;;9.37;5.43;;;20.10;99.90;;;;;;5085018;28;20787;-67
2021/08/25 09:07:58;;;;;;;7.03;5.23;;;20.30;99.90;;;;;;5090369;28;20736;-67
2021/08/25 09:10:29;;;;;;;7.80;5.37;;;20.50;99.90;;;;;;5089593;28;20665;-67
2021/08/25 09:12:59;;;;;;;7.10;5.50;;;20.80;99.90;;;;;;5086342;28;20253;-67
2021/08/25 09:15:29;;;;;;;10.03;6.10;;;20.90;99.90;;;;;;5086276;28;20278;-67
2021/08/25 09:18:00;;;;;;;9.97;5.53;;;21.20;99.90;;;;;;5083702;28;20685;-67
2021/08/25 09:20:32;;;;;;;8.73;5.33;;;21.20;99.90;;;;;;5070427;28;20192;-67
2021/08/25 09:23:22;;;;;;;5.40;4.90;;;21.10;99.90;;;;;;5066024;28;20608;-67
2021/08/25 09:25:52;;;;;;;6.73;5.00;;;21.20;99.90;;;;;;5082320;28;20664;-67
2021/08/25 09:28:28;;;;;;;10.60;5.50;;;21.30;99.90;;;;;;5064320;28;20188;-68
2021/08/25 09:31:00;;;;;;;6.80;5.40;;;21.50;99.90;;;;;;5083882;28;20650;-68
2021/08/25 09:33:31;;;;;;;5.23;4.73;;;21.80;99.90;;;;;;5084555;28;20189;-68
2021/08/25 09:36:07;;;;;;;5.47;4.77;;;21.80;99.90;;;;;;5086352;28;20191;-67
2021/08/25 09:38:37;;;;;;;6.77;4.97;;;22.00;99.90;;;;;;5084895;28;20207;-68
2021/08/25 09:41:08;;;;;;;7.10;4.30;;;22.00;99.90;;;;;;5085596;28;20204;-67
2021/08/25 09:43:41;;;;;;;5.50;4.60;;;22.20;99.90;;;;;;5087454;28;20529;-66
2021/08/25 09:46:15;;;;;;;4.67;4.27;;;22.30;99.90;;;;;;5068206;28;20256;-65
2021/08/25 09:48:45;;;;;;;5.53;4.37;;;22.60;99.90;;;;;;5088651;28;20597;-66
2021/08/25 09:51:16;;;;;;;5.43;4.70;;;22.70;99.90;;;;;;5065873;28;20195;-65
2021/08/25 09:53:47;;;;;;;7.03;4.47;;;22.80;99.90;;;;;;5087020;28;20194;-66
2021/08/25 09:56:27;;;;;;;5.77;4.23;;;22.80;99.90;;;;;;5088619;28;20215;-67
2021/08/25 09:58:56;;;;;;;8.07;4.27;;;22.80;99.90;;;;;;5085776;28;20241;-68
2021/08/25 10:01:26;;;;;;;7.53;4.47;;;22.90;99.90;;;;;;5077677;28;20193;-68
2021/08/25 10:03:55;;;;;;;5.63;4.17;;;23.00;99.90;;;;;;5087229;28;20195;-67
2021/08/25 10:06:26;;;;;;;4.57;3.80;;;23.20;99.90;;;;;;5087692;28;20251;-67
2021/08/25 10:08:55;;;;;;;7.33;4.30;;;23.30;99.90;;;;;;5070407;28;20259;-67
2021/08/25 10:11:28;;;;;;;7.00;4.10;;;23.50;99.90;;;;;;5089756;28;20218;-68
2021/08/25 10:13:56;;;;;;;8.27;4.47;;;23.60;99.90;;;;;;5094084;28;20188;-68
2021/08/25 10:16:40;;;;;;;7.33;4.77;;;23.80;99.90;;;;;;5069251;28;20227;-68
2021/08/25 10:19:34;;;;;;;8.00;4.30;;;23.60;99.90;;;;;;5079613;28;20709;-67
2021/08/25 10:22:24;;;;;;;5.33;4.63;;;23.30;99.90;;;;;;5082077;28;20187;-68
2021/08/25 10:25:04;;;;;;;5.97;4.33;;;23.60;99.90;;;;;;5082639;28;20266;-67
2021/08/25 10:27:34;;;;;;;4.53;4.10;;;24.00;99.90;;;;;;5085543;28;20215;-68
2021/08/25 10:30:13;;;;;;;5.23;4.27;;;24.10;99.90;;;;;;5084043;28;20215;-68
2021/08/25 10:33:09;;;;;;;5.18;4.68;;;24.20;99.90;;;;;;5085866;28;20637;-67
2021/08/25 10:35:42;;;;;;;8.10;4.55;;;24.40;99.90;;;;;;5057482;28;20472;-67
2021/08/25 10:38:20;;;;;;;8.57;4.20;;;24.50;99.90;;;;;;5084437;28;20191;-67
2021/08/25 10:40:50;;;;;;;6.38;4.10;;;24.60;99.90;;;;;;5084858;28;20203;-68
2021/08/25 10:43:35;;;;;;;7.53;4.13;;;24.60;99.90;;;;;;5081688;28;20226;-67
2021/08/25 10:46:05;;;;;;;4.40;4.00;;;24.70;99.90;;;;;;5082960;28;20231;-67
2021/08/25 10:48:54;;;;;;;4.28;3.90;;;24.60;99.90;;;;;;5087646;28;20212;-68
2021/08/25 10:51:44;;;;;;;4.30;3.90;;;25.00;99.90;;;;;;5081498;28;20204;-67
2021/08/25 10:54:17;;;;;;;5.68;3.72;;;24.90;99.90;;;;;;5079989;28;20303;-68
2021/08/25 10:56:48;;;;;;;4.38;3.95;;;25.10;99.90;;;;;;5085238;28;20647;-67
2021/08/25 10:59:21;;;;;;;6.68;3.40;;;25.30;99.90;;;;;;5061178;28;20280;-68
2021/08/25 11:01:51;;;;;;;5.70;3.47;;;25.20;99.90;;;;;;5081201;28;20287;-68
2021/08/25 11:04:22;;;;;;;3.90;3.60;;;25.10;99.90;;;;;;5080465;28;20197;-68
2021/08/25 11:06:52;;;;;;;5.53;3.63;;;25.20;99.90;;;;;;5069994;28;20632;-68
2021/08/25 11:09:29;;;;;;;6.50;3.90;;;25.10;99.90;;;;;;5080616;28;20196;-68
2021/08/25 11:12:03;;;;;;;4.38;3.97;;;24.90;99.90;;;;;;5090502;28;20308;-68
2021/08/25 11:14:35;;;;;;;6.00;3.70;;;24.90;99.90;;;;;;5063808;28;20189;-68
2021/08/25 11:17:14;;;;;;;4.40;4.00;;;25.30;99.90;;;;;;5088527;28;20726;-68
2021/08/25 11:19:46;;;;;;;7.95;4.40;;;25.50;99.90;;;;;;5083306;28;20227;-68
2021/08/25 11:22:18;;;;;;;5.85;4.00;;;25.60;99.90;;;;;;5085472;28;20200;-68
2021/08/25 11:24:49;;;;;;;4.22;3.83;;;25.70;99.90;;;;;;5084893;28;20195;-68
2021/08/25 11:27:32;;;;;;;4.18;3.45;;;25.80;99.90;;;;;;5078120;28;20674;-68
2021/08/25 11:30:13;;;;;;;4.45;3.67;;;25.90;99.90;;;;;;5078045;28;20196;-67
2021/08/25 11:32:59;;;;;;;5.10;3.57;;;25.70;99.90;;;;;;5083158;28;20726;-67
2021/08/25 11:35:30;;;;;;;5.25;3.83;;;25.40;99.90;;;;;;5077210;28;20671;-67
2021/08/25 11:38:00;;;;;;;5.95;3.97;;;25.30;99.90;;;;;;5090909;28;20183;-67
2021/08/25 11:40:31;;;;;;;5.87;4.03;;;25.20;99.90;;;;;;5086443;28;20192;-68
2021/08/25 11:43:05;;;;;;;4.53;4.10;;;25.20;99.90;;;;;;5083936;28;20208;-67
2021/08/25 11:45:33;;;;;;;4.15;3.63;;;25.00;99.90;;;;;;5066845;28;20225;-68
2021/08/25 11:48:04;;;;;;;4.30;3.90;;;25.30;99.90;;;;;;5085323;28;20209;-68
2021/08/25 11:50:34;;;;;;;4.30;3.90;;;25.50;99.90;;;;;;5086701;28;20188;-67
2021/08/25 11:53:03;;;;;;;5.03;4.07;;;25.60;99.90;;;;;;5084763;28;20198;-68
2021/08/25 11:55:37;;;;;;;5.32;4.20;;;25.80;99.90;;;;;;5085875;28;20306;-67
2021/08/25 11:58:20;;;;;;;4.78;4.07;;;25.80;99.90;;;;;;5077363;28;20532;-67
2021/08/25 12:00:48;;;;;;;5.10;3.95;;;25.60;99.90;;;;;;5085249;28;20254;-67
2021/08/25 12:03:17;;;;;;;4.32;3.92;;;25.50;99.90;;;;;;5080266;28;20193;-68
2021/08/25 12:05:52;;;;;;;5.23;4.10;;;25.40;99.90;;;;;;5083974;28;20224;-67
2021/08/25 12:08:21;;;;;;;4.40;4.00;;;25.50;99.90;;;;;;5082393;28;20261;-67
2021/08/25 12:11:05;;;;;;;4.07;3.63;;;25.50;99.90;;;;;;5082372;28;20199;-68
2021/08/25 12:13:35;;;;;;;4.80;4.10;;;25.60;99.90;;;;;;5078607;28;20665;-67
2021/08/25 12:16:04;;;;;;;4.40;4.00;;;25.70;99.90;;;;;;5075878;28;20279;-68
2021/08/25 12:18:47;;;;;;;6.57;4.13;;;25.80;99.90;;;;;;5079374;28;20219;-68
2021/08/25 12:21:15;;;;;;;4.43;3.87;;;26.00;99.90;;;;;;5078813;28;20290;-68
2021/08/25 12:23:58;;;;;;;5.53;4.30;;;25.80;99.90;;;;;;5072754;28;20228;-67
2021/08/25 12:26:29;;;;;;;5.00;4.40;;;25.70;99.90;;;;;;5085417;28;20642;-68
2021/08/25 12:28:59;;;;;;;7.13;4.27;;;25.60;99.90;;;;;;5072283;28;20218;-67
2021/08/25 12:31:29;;;;;;;4.80;4.30;;;25.50;99.90;;;;;;5080385;28;20222;-67
2021/08/25 12:34:06;;;;;;;4.20;3.80;;;25.30;99.90;;;;;;5084607;28;20192;-67
2021/08/25 12:36:35;;;;;;;5.47;4.13;;;25.30;99.90;;;;;;5097868;28;20208;-68
2021/08/25 12:39:13;;;;;;;4.83;4.20;;;25.40;99.90;;;;;;5094651;28;20239;-68
2021/08/25 12:41:44;;;;;;;6.07;3.93;;;25.30;99.90;;;;;;5099803;28;20197;-67
2021/08/25 12:44:13;;;;;;;7.03;4.23;;;25.20;99.90;;;;;;5098821;28;20198;-68
2021/08/25 12:46:56;;;;;;;6.33;4.37;;;25.20;99.90;;;;;;5083396;28;20194;-67
2021/08/25 12:49:26;;;;;;;4.43;3.93;;;25.00;99.90;;;;;;5087592;28;20207;-67
2021/08/25 12:51:55;;;;;;;4.60;4.20;;;24.90;99.90;;;;;;5093921;28;20222;-68